Decoded Metar for KJNX (SMITHFIELD JOHNS in NC, USA) (IATA:JNX) | Meteo·Mobile Aviation Weather
aviador You're here:

KJNX Decoded Metar

SMITHFIELD JOHNS in NC, USA
Report Time2019-06-16 04:20:00
UTC Time2019-06-16 04:47:24
Flight Rules vfr VFR
WindCalm
Visibility9999 m
Phenomena:N/A
Clouds:N/A
Expected CloudBase > 800 ft AGL from Temp-Dew spread
CeilingNone
Temp19°C (ISA +4)
Dew Point17°C (88% RH)
QNH1019 hPa
Density Alt725 ft
Elevation164 ft
Report Wrong Elevation
Raw Report
METAR KJNX 160420Z AUTO 00000KT 10SM CLR 19/17 A3010 RMK AO2=

Extra information for KJNX:More info

Metar Taf Metar & Taf Last 4 Metars F.Rules Stats Wind Profile Meteogram Temp Stats Airport Information Weather charts Add Link Nearby VenuesMetar ALERT Operation Metar Decoded Social comments

AIRNAV info for KJNX